createdAt,value
2022-12-08T06:35:07.861Z,19.35
2022-12-08T06:40:10.411Z,20.45
2022-12-08T06:45:17.357Z,19.53
2022-12-08T06:50:19.509Z,21.70
2022-12-08T06:55:50.729Z,20.88
2022-12-08T07:00:43.725Z,19.80
2022-12-08T07:05:45.815Z,19.60
2022-12-08T07:10:47.789Z,21.08
2022-12-08T07:15:49.842Z,19.92
2022-12-08T07:20:52.064Z,20.50
2022-12-08T07:25:54.104Z,19.58
2022-12-08T07:30:56.163Z,19.92
2022-12-08T07:36:01.384Z,21.23
2022-12-08T07:41:03.413Z,20.60
2022-12-08T07:46:05.734Z,20.88
2022-12-08T07:51:08.435Z,24.17
2022-12-08T07:56:11.874Z,30.47
2022-12-08T08:01:20.277Z,23.40
2022-12-08T08:06:22.856Z,24.87
2022-12-08T08:11:24.843Z,21.53
2022-12-08T08:16:27.151Z,21.77
2022-12-08T08:21:45.058Z,23.67
2022-12-08T08:26:48.069Z,22.53
2022-12-08T08:31:50.229Z,23.10
2022-12-08T08:36:52.416Z,24.15
2022-12-08T08:41:54.482Z,23.75
2022-12-08T08:46:56.567Z,22.57
2022-12-08T08:51:58.615Z,20.90
2022-12-08T08:57:00.950Z,20.33
2022-12-08T09:02:03.188Z,20.40
2022-12-08T09:07:05.265Z,20.77
2022-12-08T09:12:08.079Z,19.75
2022-12-08T09:17:10.131Z,19.83
2022-12-08T09:22:14.631Z,20.03
2022-12-08T09:27:21.791Z,20.85
2022-12-08T09:32:23.800Z,20.60
2022-12-08T09:37:26.272Z,19.13
2022-12-08T09:42:47.656Z,20.80
2022-12-08T09:47:58.775Z,19.80
2022-12-08T09:53:19.688Z,20.40
2022-12-08T09:58:29.279Z,21.92
2022-12-08T10:03:31.535Z,20.58
2022-12-08T10:08:56.867Z,19.57
2022-12-08T10:14:42.528Z,20.23
2022-12-08T10:19:46.975Z,20.30
2022-12-08T10:24:57.912Z,19.05
2022-12-08T10:29:59.968Z,18.77
2022-12-08T10:35:13.475Z,19.48
2022-12-08T10:40:18.108Z,19.58
2022-12-08T10:45:30.493Z,19.00
2022-12-08T10:50:47.141Z,19.33
2022-12-08T10:55:51.006Z,17.42
2022-12-08T11:00:57.689Z,16.73
2022-12-08T11:06:09.040Z,17.03
2022-12-08T11:11:13.559Z,17.85
2022-12-08T11:16:17.688Z,18.37
2022-12-08T11:21:19.874Z,15.47
2022-12-08T11:26:33.819Z,15.90
2022-12-08T11:31:43.727Z,14.68
2022-12-08T11:36:47.279Z,13.77
2022-12-08T11:41:53.575Z,11.65
2022-12-08T11:47:05.312Z,12.18
2022-12-08T11:52:32.051Z,12.07
2022-12-08T11:57:34.120Z,10.47
2022-12-08T12:02:42.709Z,10.65
2022-12-08T12:07:44.875Z,9.88
2022-12-08T12:13:14.760Z,9.80
2022-12-08T12:18:46.554Z,9.05
2022-12-08T12:23:59.525Z,9.57
2022-12-08T12:29:16.310Z,9.43
2022-12-08T12:34:25.710Z,9.15
2022-12-08T12:39:30.799Z,7.60
2022-12-08T12:57:14.530Z,9.23
2022-12-08T13:02:20.133Z,17.23
2022-12-08T13:07:34.902Z,18.80
2022-12-08T13:12:37.033Z,19.65
2022-12-08T13:17:45.873Z,18.35
2022-12-08T13:22:54.047Z,17.07
2022-12-08T13:27:56.090Z,17.23
2022-12-08T13:33:18.244Z,18.37
2022-12-08T13:38:22.397Z,11.97
2022-12-08T13:43:48.330Z,10.80
2022-12-08T13:59:52.085Z,10.40
2022-12-08T14:10:25.910Z,9.57
2022-12-08T14:15:32.575Z,11.00
2022-12-08T14:20:58.316Z,12.35
2022-12-08T14:25:59.666Z,13.80
2022-12-08T14:31:03.755Z,13.13
2022-12-08T14:36:06.027Z,13.90
2022-12-08T14:41:11.622Z,13.75
2022-12-08T14:46:22.349Z,13.70
2022-12-08T14:51:31.579Z,14.03
2022-12-08T14:56:38.434Z,14.05
2022-12-08T15:01:41.980Z,14.98
2022-12-08T15:06:49.786Z,14.70
2022-12-08T15:12:01.680Z,13.38
2022-12-08T15:17:24.289Z,14.55
2022-12-08T15:22:29.178Z,14.40
2022-12-08T15:27:34.976Z,25.00
2022-12-08T15:32:43.908Z,22.33
2022-12-08T15:37:46.738Z,17.20
2022-12-08T15:42:49.451Z,14.30
2022-12-08T15:47:51.471Z,11.32
2022-12-08T15:52:53.490Z,11.65
2022-12-08T16:09:06.260Z,13.85
2022-12-08T16:15:01.991Z,12.67
2022-12-08T16:19:35.780Z,11.73
2022-12-08T16:24:37.814Z,12.48
2022-12-08T16:29:39.885Z,11.63
2022-12-08T16:34:42.518Z,11.33
2022-12-08T16:39:46.209Z,12.55
2022-12-08T16:44:48.358Z,11.88
2022-12-08T16:49:50.651Z,11.33
2022-12-08T16:59:54.919Z,12.55
2022-12-08T17:04:56.957Z,14.37
2022-12-08T17:09:59.174Z,12.80
2022-12-08T17:15:07.516Z,13.00
2022-12-08T17:20:14.848Z,12.73
2022-12-08T17:25:17.005Z,13.97
2022-12-08T17:30:19.698Z,12.55
2022-12-08T17:35:21.845Z,12.10
2022-12-08T17:40:28.077Z,12.13
2022-12-08T17:45:30.434Z,11.52
2022-12-08T17:50:32.588Z,12.00
2022-12-08T17:55:35.724Z,11.07
2022-12-08T18:00:37.816Z,10.90
2022-12-08T18:05:39.894Z,11.60
2022-12-08T18:10:42.047Z,10.90
2022-12-08T18:15:44.085Z,10.33
2022-12-08T18:20:46.755Z,11.90
2022-12-08T18:25:48.898Z,10.25
2022-12-08T18:30:51.163Z,10.93
2022-12-08T18:35:53.451Z,10.82
2022-12-08T18:40:55.552Z,10.35
2022-12-08T18:46:02.895Z,12.27
2022-12-08T18:51:10.898Z,12.33
2022-12-08T18:56:27.964Z,12.23
2022-12-08T19:01:31.314Z,12.07
2022-12-08T19:06:33.498Z,11.67
2022-12-08T19:11:35.583Z,11.65
2022-12-08T19:16:38.408Z,10.38
2022-12-08T19:21:46.108Z,11.17
2022-12-08T19:26:48.768Z,10.90
2022-12-08T19:31:50.903Z,9.90
2022-12-08T19:36:53.151Z,9.93
2022-12-08T19:42:13.562Z,10.40
2022-12-08T19:47:15.825Z,10.88
2022-12-08T19:52:18.608Z,12.02
2022-12-08T19:57:20.700Z,9.87
2022-12-08T20:02:22.905Z,12.57
2022-12-08T20:07:25.010Z,10.85
2022-12-08T20:12:27.031Z,11.87
2022-12-08T20:17:29.476Z,12.37
2022-12-08T20:22:31.624Z,11.70
2022-12-08T20:27:33.684Z,11.23
2022-12-08T20:32:35.767Z,13.10
2022-12-08T20:37:37.835Z,12.35
2022-12-08T20:42:40.076Z,12.00
2022-12-08T20:47:42.110Z,12.80
2022-12-08T20:52:44.257Z,12.37
2022-12-08T20:57:46.351Z,12.93
2022-12-08T21:02:56.084Z,13.80
2022-12-08T21:07:58.938Z,13.75
2022-12-08T21:13:02.106Z,12.20
2022-12-08T21:18:04.730Z,12.83
2022-12-08T21:23:06.889Z,12.60
2022-12-08T21:28:09.642Z,12.85
2022-12-08T21:33:11.794Z,12.57
